Aeroporto :
LOGIN :

Iscrizione | Disclaimer

   EN    FR    IT 

 










Sommario :    VFR   VFR Marginale   IFR   IFR Intensivo   IFR Molto Intensivo
Visibilità : 
Base nubi : 
>= 8 km
>= 3000ft
5 / 8 km
1000 / 3000 ft
1500m / 5 km
500 / 1000 ft
800 / 1500m
200 / 500 ft
< 800m
< 200 ft
Simboli :   Temporali  Nebbia  Neve Forte  Precipitazioni Forti  Vento > 20 kt
SIGMETs :   Varie  Temporali  Ghiacco  Turbolenza  Onda orograficha  Ceneri Vulcaniche






- Altitudine del aeroporto : 778 ft
- Codice IATA : BRQ


LKTB - Brno-Turany

ULTIMO METAR :
  • 202130Z 16004KT 9999 BKN042 05/M00 Q1019 NOSIG

METARs OBSOLETI :
  • 202100Z 16004KT CAVOK 05/M01 Q1019 NOSIG
  • 202030Z 16003KT CAVOK 05/M01 Q1019 NOSIG
  • 202000Z 13006KT CAVOK 05/M01 Q1020 NOSIG
  • 201930Z 15005KT CAVOK 05/M01 Q1020 NOSIG
  • 201900Z 15006KT 9999 FEW045 05/M02 Q1020 NOSIG

TAF TAF LKTB
Valido dal 20 a 18 ore il 22 a 00 ore UTC


201700Z 2018/2200 18007KT 9999 SCT036
BECMG 2102/2104 BKN033
TEMPO 2104/2109 7000 RA
PROB30
TEMPO 2104/2109 4000 SHRA FEW012CB BKN014
BECMG 2106/2108 30014KT
TEMPO 2108/2116 32018G30KT
BECMG 2109/2111 SCT040
TEMPO 2111/2117 SHRA FEW020CB BKN028
BECMG 2122/2200 29004KT



MetMap, La meteo Aeronautica in un colpo d'occhio ! - Copyright ORBIFLY Dicembre 2007 - Disclaimer

ORBIFLY MET'MAP TEAM :

Programmazione e sviluppo : Alexandra Zaïnal
Concezione : Baudouin d'Aumeries
Aiuto per la programmazione : Marc-Olivier Méhu
Supporto tecnico e logistico : Manuel Goepfert
Aiuto per la traduzione : Arnaldo La Scala

Contatto : metmap@orbifly.com




FONTI E CREDITI :

   NOAA